createdAt,value
2022-10-02T00:02:36.084Z,37.10
2022-10-02T00:07:50.335Z,36.82
2022-10-02T00:13:02.075Z,36.52
2022-10-02T00:18:19.281Z,35.50
2022-10-02T00:23:37.865Z,35.68
2022-10-02T00:28:46.778Z,36.27
2022-10-02T00:34:09.989Z,36.20
2022-10-02T00:39:46.556Z,35.88
2022-10-02T00:45:19.873Z,36.93
2022-10-02T00:51:05.951Z,37.61
2022-10-02T00:56:41.976Z,38.08
2022-10-02T01:01:54.130Z,37.62
2022-10-02T01:06:56.525Z,37.08
2022-10-02T01:11:59.485Z,38.17
2022-10-02T01:17:02.611Z,38.08
2022-10-02T01:22:17.502Z,38.30
2022-10-02T01:27:19.785Z,39.01
2022-10-02T01:32:25.992Z,38.71
2022-10-02T01:37:31.341Z,38.82
2022-10-02T01:42:34.184Z,38.14
2022-10-02T01:47:50.807Z,38.59
2022-10-02T01:53:15.730Z,38.09
2022-10-02T01:58:45.904Z,38.33
2022-10-02T02:04:15.293Z,39.14
2022-10-02T02:09:33.848Z,39.89
2022-10-02T02:14:42.320Z,39.75
2022-10-02T02:19:59.765Z,40.12
2022-10-02T02:25:12.129Z,39.52
2022-10-02T02:30:15.293Z,39.94
2022-10-02T02:35:33.771Z,39.21
2022-10-02T02:40:41.860Z,38.46
2022-10-02T02:46:00.012Z,39.28
2022-10-02T02:51:09.487Z,39.04
2022-10-02T02:56:16.157Z,39.01
2022-10-02T03:01:18.053Z,39.03
2022-10-02T03:06:31.573Z,39.46
2022-10-02T03:11:48.482Z,40.31
2022-10-02T03:17:10.880Z,41.44
2022-10-02T03:22:21.832Z,40.94
2022-10-02T03:27:32.598Z,39.68
2022-10-02T03:32:39.291Z,39.70
2022-10-02T03:37:43.592Z,39.56
2022-10-02T03:42:45.571Z,41.06
2022-10-02T03:47:47.593Z,42.00
2022-10-02T03:52:51.871Z,41.61
2022-10-02T03:57:55.021Z,41.25
2022-10-02T04:02:58.948Z,40.84
2022-10-02T04:08:09.405Z,41.19
2022-10-02T04:13:20.521Z,40.65
2022-10-02T04:18:38.743Z,39.55
2022-10-02T04:23:50.497Z,39.33
2022-10-02T04:29:01.061Z,40.19
2022-10-02T04:34:07.708Z,40.18
2022-10-02T04:39:15.658Z,39.85
2022-10-02T04:44:31.053Z,40.48
2022-10-02T04:50:14.970Z,41.35
2022-10-02T04:55:57.149Z,42.23
2022-10-02T05:01:09.341Z,42.29
2022-10-02T05:06:24.581Z,42.11
2022-10-02T05:11:38.429Z,41.94
2022-10-02T05:17:03.804Z,42.74
2022-10-02T05:22:08.470Z,42.31
2022-10-02T05:27:19.531Z,42.73
2022-10-02T05:32:33.460Z,44.05
2022-10-02T05:37:35.224Z,44.07
2022-10-02T05:42:47.808Z,44.27
2022-10-02T05:48:09.973Z,44.54
2022-10-02T05:53:31.645Z,44.20
2022-10-02T05:58:56.641Z,43.79
2022-10-02T06:04:24.345Z,41.82
2022-10-02T06:10:23.116Z,41.76
2022-10-02T06:15:32.501Z,41.99
2022-10-02T06:20:40.722Z,42.02
2022-10-02T06:25:56.266Z,45.02
2022-10-02T06:31:21.777Z,44.54
2022-10-02T06:36:52.733Z,44.62
2022-10-02T06:41:57.390Z,41.90
2022-10-02T06:47:17.692Z,43.06
2022-10-02T06:52:45.026Z,46.44
2022-10-02T07:03:51.081Z,46.70
2022-10-02T07:09:23.353Z,47.67
2022-10-02T07:15:05.952Z,46.53
2022-10-02T07:20:38.624Z,49.11
2022-10-02T07:26:18.986Z,45.41
2022-10-02T07:31:32.788Z,45.03
2022-10-02T07:37:08.782Z,41.84
2022-10-02T07:42:17.631Z,43.00
2022-10-02T07:47:44.383Z,41.33
2022-10-02T07:53:20.425Z,42.16
2022-10-02T07:58:36.912Z,37.68
2022-10-02T08:03:50.249Z,34.79
2022-10-02T08:09:14.462Z,35.51
2022-10-02T08:14:38.252Z,33.83
2022-10-02T08:19:45.976Z,27.91
2022-10-02T08:24:53.841Z,28.03
2022-10-02T08:29:59.949Z,27.83
2022-10-02T08:35:05.993Z,25.49
2022-10-02T08:40:19.883Z,26.35
2022-10-02T08:45:36.929Z,23.24
2022-10-02T08:51:18.551Z,25.42
2022-10-02T08:57:01.693Z,25.83
2022-10-02T09:02:11.236Z,24.78
2022-10-02T09:07:26.008Z,24.26
2022-10-02T09:13:11.250Z,22.09
2022-10-02T09:18:17.803Z,17.84
2022-10-02T09:23:38.130Z,17.69
2022-10-02T09:29:28.112Z,18.54
2022-10-02T09:34:52.330Z,18.00
2022-10-02T09:40:09.864Z,19.71
2022-10-02T09:45:44.022Z,16.83
2022-10-02T09:51:19.840Z,14.06
2022-10-02T09:56:25.551Z,7.40
2022-10-02T10:01:45.951Z,7.89
2022-10-02T10:06:54.133Z,7.79
2022-10-02T10:12:14.605Z,6.42
2022-10-02T10:17:25.654Z,4.93
2022-10-02T10:22:39.062Z,-1.93
2022-10-02T10:27:59.309Z,0.40
2022-10-02T10:33:27.967Z,46.44
2022-10-02T10:38:52.189Z,35.24
2022-10-02T10:44:18.721Z,33.54
2022-10-02T10:49:36.060Z,37.74
2022-10-02T10:54:45.080Z,35.57
2022-10-02T11:00:17.937Z,37.91
2022-10-02T11:05:47.448Z,36.76
2022-10-02T11:11:19.820Z,29.25
2022-10-02T11:16:30.972Z,26.36
2022-10-02T11:21:44.808Z,28.79
2022-10-02T11:26:49.292Z,27.60
2022-10-02T11:31:57.087Z,29.48
2022-10-02T11:37:24.327Z,28.65
2022-10-02T11:42:58.158Z,24.11
2022-10-02T11:48:20.212Z,23.04
2022-10-02T11:54:03.316Z,18.64
2022-10-02T11:59:30.716Z,8.47
2022-10-02T12:05:04.474Z,10.35
2022-10-02T12:10:45.120Z,9.75
2022-10-02T12:16:26.366Z,8.73
2022-10-02T12:21:50.030Z,5.38
2022-10-02T12:27:17.333Z,3.00
2022-10-02T12:32:57.165Z,3.35
2022-10-02T12:38:27.058Z,4.31
2022-10-02T12:43:59.230Z,2.20
2022-10-02T12:49:20.906Z,0.90
2022-10-02T12:54:37.803Z,2.16
2022-10-02T12:59:55.785Z,2.82
2022-10-02T13:05:28.082Z,0.45
2022-10-02T13:10:57.365Z,0.06
2022-10-02T13:16:34.500Z,2.25
2022-10-02T13:21:48.217Z,2.31
2022-10-02T13:27:02.409Z,3.48
2022-10-02T13:32:25.823Z,1.42
2022-10-02T13:37:43.701Z,0.56
2022-10-02T13:43:05.920Z,-1.74
2022-10-02T13:48:19.682Z,0.46
2022-10-02T13:53:30.622Z,-1.47
2022-10-02T13:58:58.386Z,-2.28
2022-10-02T14:04:30.038Z,-0.12
2022-10-02T14:09:48.367Z,0.52
2022-10-02T14:15:08.938Z,-0.22
2022-10-02T14:20:29.533Z,-3.30
2022-10-02T14:25:53.333Z,-1.67
2022-10-02T14:31:21.896Z,-2.63
2022-10-02T14:36:32.288Z,-2.67
2022-10-02T14:41:58.811Z,-4.29
2022-10-02T14:47:17.196Z,-3.68
2022-10-02T14:52:27.902Z,-2.54
2022-10-02T14:57:29.787Z,-2.37
2022-10-02T15:02:54.594Z,-1.12
2022-10-02T15:07:57.738Z,0.74
2022-10-02T15:13:10.545Z,2.58
2022-10-02T15:18:58.130Z,4.35
2022-10-02T15:24:25.710Z,6.09
2022-10-02T15:29:36.832Z,6.61
2022-10-02T15:34:55.331Z,7.82
2022-10-02T15:40:19.268Z,8.64
2022-10-02T15:45:33.530Z,10.40
2022-10-02T15:50:47.577Z,11.90
2022-10-02T15:55:55.863Z,13.73
2022-10-02T16:01:39.239Z,15.87
2022-10-02T16:07:10.221Z,18.07
2022-10-02T16:12:27.299Z,20.10
2022-10-02T16:17:48.587Z,21.87
2022-10-02T16:22:58.591Z,23.05
2022-10-02T16:28:06.531Z,25.01
2022-10-02T16:33:17.005Z,26.35
2022-10-02T16:38:25.160Z,27.69
2022-10-02T16:43:34.791Z,28.35
2022-10-02T16:49:01.481Z,29.33
2022-10-02T16:54:17.423Z,31.41
2022-10-02T16:59:26.041Z,32.16
2022-10-02T17:05:03.523Z,33.33
2022-10-02T17:10:20.543Z,35.02
2022-10-02T17:15:40.654Z,37.16
2022-10-02T17:20:56.197Z,38.81
2022-10-02T17:25:58.780Z,40.09
2022-10-02T17:31:00.907Z,40.57
2022-10-02T17:36:19.634Z,41.28
2022-10-02T17:41:42.428Z,41.71
2022-10-02T17:47:08.673Z,42.03
2022-10-02T17:52:35.113Z,42.37
2022-10-02T17:58:13.077Z,42.26
2022-10-02T18:03:55.718Z,42.29
2022-10-02T18:09:12.886Z,42.52
2022-10-02T18:14:21.004Z,42.55
2022-10-02T18:19:27.980Z,42.23
2022-10-02T18:24:46.102Z,40.84
2022-10-02T18:29:59.901Z,40.88
2022-10-02T18:35:24.224Z,41.16
2022-10-02T18:40:37.074Z,40.91
2022-10-02T18:45:56.021Z,41.60
2022-10-02T18:51:01.139Z,41.48
2022-10-02T18:56:08.587Z,41.19
2022-10-02T19:01:16.581Z,41.04
2022-10-02T19:06:27.680Z,40.94
2022-10-02T19:11:39.050Z,41.07
2022-10-02T19:16:59.283Z,40.21
2022-10-02T19:22:09.644Z,40.24
2022-10-02T19:27:44.635Z,39.68
2022-10-02T19:32:55.118Z,39.38
2022-10-02T19:38:12.717Z,38.96
2022-10-02T19:43:26.597Z,38.24
2022-10-02T19:48:30.962Z,37.01
2022-10-02T19:53:40.922Z,36.47
2022-10-02T19:58:49.796Z,36.72
2022-10-02T20:04:03.600Z,37.71
2022-10-02T20:09:08.459Z,39.00
2022-10-02T20:14:17.478Z,38.53
2022-10-02T20:19:34.482Z,39.31
2022-10-02T20:24:45.261Z,40.71
2022-10-02T20:29:52.802Z,41.75
2022-10-02T20:35:02.835Z,40.78
2022-10-02T20:40:17.065Z,39.91
2022-10-02T20:45:23.444Z,40.37
2022-10-02T20:50:40.506Z,38.88
2022-10-02T20:55:45.260Z,37.93
2022-10-02T21:00:56.836Z,38.72
2022-10-02T21:06:46.870Z,38.49
2022-10-02T21:12:04.077Z,38.31
2022-10-02T21:17:08.904Z,37.17
2022-10-02T21:22:23.182Z,37.44
2022-10-02T21:28:03.507Z,37.69
2022-10-02T21:33:14.422Z,37.37
2022-10-02T21:38:28.178Z,37.99
2022-10-02T21:43:33.471Z,36.15
2022-10-02T21:48:50.671Z,35.06
2022-10-02T21:54:02.106Z,34.23
2022-10-02T21:59:19.563Z,35.98
2022-10-02T22:04:52.621Z,39.39
2022-10-02T22:10:30.267Z,39.15
2022-10-02T22:15:50.698Z,37.33
2022-10-02T22:21:11.445Z,37.26
2022-10-02T22:26:46.879Z,39.52
2022-10-02T22:32:34.402Z,39.65
2022-10-02T22:37:54.894Z,40.42
2022-10-02T22:43:04.979Z,42.53
2022-10-02T22:48:14.552Z,42.62
2022-10-02T22:53:35.489Z,42.81
2022-10-02T22:58:44.392Z,42.21
2022-10-02T23:04:01.745Z,41.29
2022-10-02T23:09:30.036Z,42.65
2022-10-02T23:14:53.130Z,42.00
2022-10-02T23:20:19.928Z,43.16
2022-10-02T23:25:30.616Z,41.81
2022-10-02T23:30:40.778Z,41.21
2022-10-02T23:35:45.516Z,42.35
2022-10-02T23:41:26.540Z,41.33
2022-10-02T23:47:00.039Z,40.10
2022-10-02T23:52:37.907Z,41.35
2022-10-02T23:58:13.415Z,42.41
